Time;durP1;ratioP1;P1;durP2;ratioP2;P2;SDS_P1;SDS_P2;PMS_P1;PMS_P2;Temp;Humidity;BMP_temperature;BMP_pressure;BME280_temperature;BME280_humidity;BME280_pressure;Samples;Min_cycle;Max_cycle;Signal;HPM_P1;HPM_P2
2023/02/13 00:00:19;;;;;;;13.82;9.60;;;;;;;;;;5055830;28;20051;-54
2023/02/13 00:02:45;;;;;;;19.70;13.05;;;;;;;;;;5056548;28;20032;-57
2023/02/13 00:05:11;;;;;;;18.98;10.73;;;;;;;;;;5055641;28;20059;-56
2023/02/13 00:07:37;;;;;;;14.63;9.80;;;;;;;;;;5055854;28;20370;-56
2023/02/13 00:10:03;;;;;;;16.23;12.00;;;;;;;;;;5056030;28;20021;-57
2023/02/13 00:12:29;;;;;;;14.65;9.98;;;;;;;;;;5055768;28;20021;-54
2023/02/13 00:14:55;;;;;;;16.80;9.50;;;;;;;;;;5055908;28;20032;-57
2023/02/13 00:17:21;;;;;;;17.50;11.02;;;;;;;;;;5055568;28;20154;-55
2023/02/13 00:19:47;;;;;;;15.73;10.82;;;;;;;;;;5056349;28;20032;-56
2023/02/13 00:22:15;;;;;;;14.32;9.10;;;;;;;;;;5055838;28;20414;-54
2023/02/13 00:24:41;;;;;;;17.95;11.82;;;;;;;;;;5056561;28;20099;-53
2023/02/13 00:27:07;;;;;;;16.42;10.00;;;;;;;;;;5055414;28;20021;-53
2023/02/13 00:29:33;;;;;;;22.70;11.52;;;;;;;;;;5055449;28;20036;-55
2023/02/13 00:32:00;;;;;;;19.08;9.40;;;;;;;;;;5055417;28;20083;-52
2023/02/13 00:34:26;;;;;;;15.23;9.13;;;;;;;;;;5055006;28;20524;-54
2023/02/13 00:36:52;;;;;;;19.63;10.23;;;;;;;;;;5055862;28;20084;-55
2023/02/13 00:39:18;;;;;;;11.63;9.32;;;;;;;;;;5055107;28;20052;-54
2023/02/13 00:41:44;;;;;;;18.27;12.43;;;;;;;;;;5055480;28;20029;-53
2023/02/13 00:44:10;;;;;;;22.58;10.73;;;;;;;;;;5055005;28;20048;-55
2023/02/13 00:46:37;;;;;;;14.93;10.27;;;;;;;;;;5055400;28;20074;-54
2023/02/13 00:49:03;;;;;;;17.60;9.93;;;;;;;;;;5054953;28;20032;-55
2023/02/13 00:51:29;;;;;;;15.18;10.27;;;;;;;;;;5054684;28;20025;-53
2023/02/13 00:53:55;;;;;;;12.27;8.25;;;;;;;;;;5054930;28;20481;-50
2023/02/13 00:56:21;;;;;;;12.35;9.00;;;;;;;;;;5055466;28;20033;-54
2023/02/13 00:58:47;;;;;;;14.67;9.90;;;;;;;;;;5054801;28;20044;-52
2023/02/13 01:01:13;;;;;;;13.52;9.48;;;;;;;;;;5055091;28;20029;-51
2023/02/13 01:03:39;;;;;;;14.38;9.82;;;;;;;;;;5054518;28;20060;-55
2023/02/13 01:06:05;;;;;;;18.03;10.47;;;;;;;;;;5054964;28;20033;-51
2023/02/13 01:08:31;;;;;;;14.02;8.30;;;;;;;;;;5054342;28;20467;-55
2023/02/13 01:10:57;;;;;;;16.13;9.40;;;;;;;;;;5054636;28;20021;-54
2023/02/13 01:13:23;;;;;;;17.95;8.85;;;;;;;;;;5055101;28;20348;-53
2023/02/13 01:15:49;;;;;;;17.40;11.07;;;;;;;;;;5054775;28;20440;-54
2023/02/13 01:18:16;;;;;;;16.33;11.20;;;;;;;;;;5054794;28;20029;-52
2023/02/13 01:20:43;;;;;;;15.05;10.25;;;;;;;;;;5054688;28;20029;-54
2023/02/13 01:23:09;;;;;;;15.32;10.13;;;;;;;;;;5054435;28;20024;-55
2023/02/13 01:25:38;;;;;;;15.00;9.52;;;;;;;;;;5054649;28;20067;-54
2023/02/13 01:28:04;;;;;;;13.60;10.83;;;;;;;;;;5054865;28;20082;-52
2023/02/13 01:30:30;;;;;;;16.15;10.70;;;;;;;;;;5054862;28;20503;-51
2023/02/13 01:32:56;;;;;;;12.63;8.43;;;;;;;;;;5053926;28;20017;-54
2023/02/13 01:35:22;;;;;;;13.20;10.00;;;;;;;;;;5054851;28;20106;-55
2023/02/13 01:37:48;;;;;;;14.50;10.23;;;;;;;;;;5054219;28;20028;-53
2023/02/13 01:40:16;;;;;;;14.00;9.77;;;;;;;;;;5054637;28;20020;-55
2023/02/13 01:42:42;;;;;;;17.13;10.27;;;;;;;;;;5054009;28;20028;-54
2023/02/13 01:45:28;;;;;;;15.30;10.47;;;;;;;;;;5054072;28;20518;-57
2023/02/13 01:48:02;;;;;;;10.18;6.40;;;;;;;;;;5054014;28;20029;-57
2023/02/13 01:50:32;;;;;;;21.17;12.27;;;;;;;;;;5053676;28;20029;-55
2023/02/13 01:53:06;;;;;;;17.48;11.43;;;;;;;;;;5053811;28;20029;-53
2023/02/13 01:55:33;;;;;;;14.35;9.35;;;;;;;;;;5054021;28;20039;-52
2023/02/13 01:58:06;;;;;;;19.20;10.47;;;;;;;;;;5054186;28;20021;-53
2023/02/13 02:00:33;;;;;;;16.67;11.23;;;;;;;;;;5054175;28;20033;-53
2023/02/13 02:03:02;;;;;;;15.37;10.40;;;;;;;;;;5053402;28;20021;-53
2023/02/13 02:05:29;;;;;;;12.77;9.63;;;;;;;;;;5053683;28;20103;-53
2023/02/13 02:07:57;;;;;;;14.55;9.40;;;;;;;;;;5053442;28;20028;-53
2023/02/13 02:10:23;;;;;;;13.17;10.87;;;;;;;;;;5053728;28;20037;-53
2023/02/13 02:13:01;;;;;;;14.67;10.80;;;;;;;;;;5053721;28;20025;-55
2023/02/13 02:15:27;;;;;;;19.00;11.53;;;;;;;;;;5053364;28;20460;-55
2023/02/13 02:17:53;;;;;;;13.03;10.43;;;;;;;;;;5053501;28;20162;-52
2023/02/13 02:20:39;;;;;;;17.20;11.37;;;;;;;;;;5054078;28;20028;-53
2023/02/13 02:23:15;;;;;;;13.63;9.73;;;;;;;;;;5053597;28;20166;-53
2023/02/13 02:25:44;;;;;;;17.97;10.87;;;;;;;;;;5054138;28;20371;-55
2023/02/13 02:28:13;;;;;;;16.13;11.77;;;;;;;;;;5053474;28;20033;-56
2023/02/13 02:30:42;;;;;;;16.13;11.70;;;;;;;;;;5053283;28;20052;-55
2023/02/13 02:33:18;;;;;;;16.07;11.60;;;;;;;;;;5053533;28;20499;-53
2023/02/13 02:35:55;;;;;;;16.40;11.23;;;;;;;;;;5053642;28;20092;-53
2023/02/13 02:38:40;;;;;;;15.83;11.93;;;;;;;;;;5053751;28;20130;-54
2023/02/13 02:41:09;;;;;;;22.33;11.90;;;;;;;;;;5053722;28;20022;-53
2023/02/13 02:43:41;;;;;;;12.50;9.63;;;;;;;;;;5053590;28;20028;-55
2023/02/13 02:46:21;;;;;;;16.20;10.77;;;;;;;;;;5053564;28;20162;-55
2023/02/13 02:51:42;;;;;;;16.50;10.77;;;;;;;;;;5053279;28;20091;-53
2023/02/13 02:57:07;;;;;;;14.57;10.87;;;;;;;;;;5053236;28;20474;-55
2023/02/13 03:07:48;;;;;;;19.27;12.73;;;;;;;;;;5057224;28;20039;-56
2023/02/13 03:13:35;;;;;;;16.40;10.13;;;;;;;;;;5055405;28;20421;-55
2023/02/13 03:24:52;;;;;;;14.87;11.23;;;;;;;;;;5056364;28;20040;-56
2023/02/13 03:30:18;;;;;;;12.25;10.23;;;;;;;;;;5056337;28;20075;-55
2023/02/13 03:32:59;;;;;;;16.20;9.83;;;;;;;;;;5056491;28;20459;-54
2023/02/13 03:38:39;;;;;;;13.27;10.00;;;;;;;;;;5056139;28;20036;-56
2023/02/13 03:41:18;;;;;;;14.93;10.80;;;;;;;;;;5056547;28;20362;-52
2023/02/13 03:43:49;;;;;;;19.03;11.27;;;;;;;;;;5056294;28;20102;-56
2023/02/13 03:46:15;;;;;;;14.93;13.33;;;;;;;;;;5056738;28;20040;-55
2023/02/13 03:51:43;;;;;;;16.80;12.83;;;;;;;;;;5056152;28;20035;-52
2023/02/13 03:54:16;;;;;;;15.30;11.47;;;;;;;;;;5056003;28;20393;-55
2023/02/13 03:59:30;;;;;;;14.73;10.97;;;;;;;;;;5055992;28;20082;-52
2023/02/13 04:02:02;;;;;;;18.60;12.17;;;;;;;;;;5056346;28;20021;-55
2023/02/13 04:04:31;;;;;;;18.67;11.63;;;;;;;;;;5056115;28;20163;-55
2023/02/13 04:07:00;;;;;;;15.20;11.40;;;;;;;;;;5056355;28;20371;-54
2023/02/13 04:09:28;;;;;;;20.20;11.77;;;;;;;;;;5055788;28;20413;-53
2023/02/13 04:11:58;;;;;;;16.57;12.20;;;;;;;;;;5056048;28;20029;-51
2023/02/13 04:14:56;;;;;;;19.80;14.70;;;;;;;;;;5055023;28;20033;-51
2023/02/13 04:17:29;;;;;;;16.63;11.50;;;;;;;;;;5043314;28;20458;-56
2023/02/13 04:19:56;;;;;;;19.70;11.53;;;;;;;;;;5055973;28;20104;-55
2023/02/13 04:22:21;;;;;;;18.63;13.60;;;;;;;;;;5055009;28;20057;-55
2023/02/13 04:24:48;;;;;;;15.03;12.20;;;;;;;;;;5055497;28;20068;-53
2023/02/13 04:27:15;;;;;;;14.53;11.00;;;;;;;;;;5055497;28;20458;-55
2023/02/13 04:29:41;;;;;;;19.87;12.80;;;;;;;;;;5055721;28;20052;-53
2023/02/13 04:32:09;;;;;;;21.43;12.10;;;;;;;;;;5056015;28;20025;-54
2023/02/13 04:34:35;;;;;;;18.03;13.20;;;;;;;;;;5055690;28;20091;-55
2023/02/13 04:37:01;;;;;;;19.80;13.40;;;;;;;;;;5055698;28;20025;-54
2023/02/13 04:39:27;;;;;;;18.27;11.70;;;;;;;;;;5055356;28;20100;-54
2023/02/13 04:41:53;;;;;;;14.73;10.20;;;;;;;;;;5055289;28;20032;-55
2023/02/13 04:44:19;;;;;;;21.73;12.20;;;;;;;;;;5054879;28;20032;-54
2023/02/13 04:46:45;;;;;;;21.03;14.60;;;;;;;;;;5055766;28;20025;-54
2023/02/13 04:49:11;;;;;;;16.57;12.60;;;;;;;;;;5055152;28;20459;-50
2023/02/13 04:51:37;;;;;;;21.07;13.87;;;;;;;;;;5054980;28;20032;-55
2023/02/13 04:54:03;;;;;;;17.90;11.60;;;;;;;;;;5054965;28;20035;-55
2023/02/13 04:56:29;;;;;;;16.00;13.20;;;;;;;;;;5055279;28;20029;-54
2023/02/13 04:58:55;;;;;;;15.07;10.87;;;;;;;;;;5055542;28;20415;-52
2023/02/13 05:01:21;;;;;;;17.40;12.83;;;;;;;;;;5055458;28;20348;-56
2023/02/13 05:03:47;;;;;;;16.43;12.03;;;;;;;;;;5055148;28;20378;-55
2023/02/13 05:06:13;;;;;;;21.20;13.00;;;;;;;;;;5054888;28;20051;-52
2023/02/13 05:08:39;;;;;;;17.67;12.13;;;;;;;;;;5055442;28;20017;-56
2023/02/13 05:11:06;;;;;;;21.30;13.60;;;;;;;;;;5054617;28;20374;-54
2023/02/13 05:13:32;;;;;;;15.87;12.90;;;;;;;;;;5054671;28;20025;-55
2023/02/13 05:15:58;;;;;;;19.73;13.53;;;;;;;;;;5054912;28;20526;-56
2023/02/13 05:18:24;;;;;;;18.10;12.53;;;;;;;;;;5055113;28;20063;-54
2023/02/13 05:23:35;;;;;;;15.33;9.87;;;;;;;;;;5054585;28;20079;-54
2023/02/13 05:26:01;;;;;;;17.53;11.47;;;;;;;;;;5054140;28;20349;-52
2023/02/13 05:31:11;;;;;;;16.43;12.30;;;;;;;;;;5054404;28;20039;-55
2023/02/13 05:33:37;;;;;;;16.33;12.87;;;;;;;;;;5054323;28;20036;-52
2023/02/13 05:36:03;;;;;;;15.87;12.87;;;;;;;;;;5054800;28;20037;-55
2023/02/13 05:38:29;;;;;;;13.10;11.23;;;;;;;;;;5054257;28;20367;-55
2023/02/13 05:40:57;;;;;;;13.30;11.90;;;;;;;;;;5054068;28;20029;-56
2023/02/13 05:43:23;;;;;;;11.27;10.17;;;;;;;;;;5054688;28;20029;-52
2023/02/13 05:45:51;;;;;;;14.50;10.30;;;;;;;;;;5054364;28;20036;-52
2023/02/13 05:48:17;;;;;;;17.90;13.87;;;;;;;;;;5053903;28;20455;-54
2023/02/13 05:50:43;;;;;;;16.63;12.23;;;;;;;;;;5054476;28;20031;-54
2023/02/13 05:53:09;;;;;;;17.60;10.80;;;;;;;;;;5054053;28;20029;-55
2023/02/13 05:55:34;;;;;;;18.67;12.47;;;;;;;;;;5054564;28;20033;-56
2023/02/13 05:58:00;;;;;;;20.63;13.13;;;;;;;;;;5053928;28;20033;-56
2023/02/13 06:00:26;;;;;;;18.33;13.70;;;;;;;;;;5054340;28;20025;-56
2023/02/13 06:02:52;;;;;;;22.10;12.17;;;;;;;;;;5054122;28;20033;-56
2023/02/13 06:05:18;;;;;;;22.80;13.90;;;;;;;;;;5053775;28;20037;-55
2023/02/13 06:07:44;;;;;;;17.50;14.57;;;;;;;;;;5053748;28;20025;-54
2023/02/13 06:10:10;;;;;;;20.30;12.80;;;;;;;;;;5053507;28;20025;-55
2023/02/13 06:12:37;;;;;;;21.70;14.03;;;;;;;;;;5053625;28;20363;-56
2023/02/13 06:15:03;;;;;;;26.53;16.20;;;;;;;;;;5053901;28;20094;-55
2023/02/13 06:17:29;;;;;;;28.27;20.40;;;;;;;;;;5054180;28;20114;-55
2023/02/13 06:19:55;;;;;;;21.77;14.03;;;;;;;;;;5053894;28;20052;-54
2023/02/13 06:22:21;;;;;;;19.13;15.33;;;;;;;;;;5053668;28;20029;-55
2023/02/13 06:24:46;;;;;;;35.43;22.10;;;;;;;;;;5053342;28;20047;-55
2023/02/13 06:27:12;;;;;;;24.10;16.67;;;;;;;;;;5053999;28;20025;-55
2023/02/13 06:29:38;;;;;;;15.57;11.23;;;;;;;;;;5053598;28;20470;-53
2023/02/13 06:32:04;;;;;;;13.47;10.50;;;;;;;;;;5054316;28;20048;-54
2023/02/13 06:34:30;;;;;;;15.47;12.40;;;;;;;;;;5053537;28;20056;-54
2023/02/13 06:36:56;;;;;;;15.27;11.97;;;;;;;;;;5054751;28;20021;-56
2023/02/13 06:39:22;;;;;;;24.67;13.47;;;;;;;;;;5057417;28;20123;-55
2023/02/13 06:41:48;;;;;;;15.30;9.43;;;;;;;;;;5057487;28;20053;-54
2023/02/13 06:44:14;;;;;;;12.97;10.00;;;;;;;;;;5057740;28;20036;-54
2023/02/13 06:46:40;;;;;;;17.83;12.40;;;;;;;;;;5057750;28;20100;-54
2023/02/13 06:49:06;;;;;;;12.03;10.73;;;;;;;;;;5057085;28;20032;-55
2023/02/13 06:51:32;;;;;;;12.53;11.23;;;;;;;;;;5057335;28;20036;-56
2023/02/13 06:53:58;;;;;;;15.30;11.07;;;;;;;;;;5057205;28;20428;-55
2023/02/13 06:56:25;;;;;;;14.47;10.93;;;;;;;;;;5057722;28;20025;-55
2023/02/13 06:58:51;;;;;;;15.03;10.50;;;;;;;;;;5057120;28;20419;-55
2023/02/13 07:01:17;;;;;;;14.70;10.30;;;;;;;;;;5057157;28;20032;-55
2023/02/13 07:03:43;;;;;;;13.03;9.30;;;;;;;;;;5057004;28;20425;-56
2023/02/13 07:06:09;;;;;;;13.80;9.93;;;;;;;;;;5056647;28;20033;-54
2023/02/13 07:08:35;;;;;;;17.33;12.23;;;;;;;;;;5056824;28;20120;-56
2023/02/13 07:11:01;;;;;;;15.37;12.50;;;;;;;;;;5056970;28;20116;-55
2023/02/13 07:13:27;;;;;;;13.00;11.37;;;;;;;;;;5056904;28;20083;-55
2023/02/13 07:15:52;;;;;;;20.87;13.97;;;;;;;;;;5057309;28;20078;-54
2023/02/13 07:18:18;;;;;;;18.33;12.40;;;;;;;;;;5057146;28;20447;-53
2023/02/13 07:20:44;;;;;;;15.40;13.73;;;;;;;;;;5056654;28;20075;-56
2023/02/13 07:23:10;;;;;;;19.63;11.30;;;;;;;;;;5056637;28;20032;-56
2023/02/13 07:25:36;;;;;;;18.70;12.87;;;;;;;;;;5056857;28;20029;-56
2023/02/13 07:28:04;;;;;;;22.13;12.47;;;;;;;;;;5056436;28;20037;-54
2023/02/13 07:30:31;;;;;;;17.27;12.70;;;;;;;;;;5056466;28;20021;-56
2023/02/13 07:33:00;;;;;;;22.60;15.57;;;;;;;;;;5056403;28;20116;-57
2023/02/13 07:35:26;;;;;;;28.13;13.40;;;;;;;;;;5057056;28;20112;-55
2023/02/13 07:37:53;;;;;;;25.40;16.13;;;;;;;;;;5056486;28;20060;-56
2023/02/13 07:40:20;;;;;;;19.10;13.30;;;;;;;;;;5056363;28;20017;-56
2023/02/13 07:42:46;;;;;;;16.10;12.80;;;;;;;;;;5056656;28;20060;-56
2023/02/13 07:45:14;;;;;;;25.03;15.17;;;;;;;;;;5056834;28;20439;-56
2023/02/13 07:47:40;;;;;;;20.13;15.20;;;;;;;;;;5056590;28;20029;-53
2023/02/13 07:50:06;;;;;;;20.50;16.03;;;;;;;;;;5055139;28;20029;-54
2023/02/13 07:52:32;;;;;;;14.40;11.57;;;;;;;;;;5056221;28;20143;-57
2023/02/13 07:54:58;;;;;;;24.03;15.20;;;;;;;;;;5055468;28;20443;-56
2023/02/13 07:57:24;;;;;;;17.43;14.73;;;;;;;;;;5054656;28;20067;-56
2023/02/13 07:59:50;;;;;;;15.83;12.40;;;;;;;;;;5056706;28;20348;-55
2023/02/13 08:02:16;;;;;;;19.93;14.27;;;;;;;;;;5055806;28;20018;-56
2023/02/13 08:04:45;;;;;;;19.07;11.80;;;;;;;;;;5055850;28;20049;-57
2023/02/13 08:07:12;;;;;;;17.37;14.23;;;;;;;;;;5056073;28;20131;-57
2023/02/13 08:12:22;;;;;;;15.70;13.20;;;;;;;;;;5055910;28;20052;-56
2023/02/13 08:14:48;;;;;;;16.53;12.83;;;;;;;;;;5055816;28;20055;-57
2023/02/13 08:17:14;;;;;;;15.30;11.73;;;;;;;;;;5055647;28;20550;-54
2023/02/13 08:19:40;;;;;;;15.70;13.93;;;;;;;;;;5055643;28;20375;-57
2023/02/13 08:22:06;;;;;;;17.80;12.67;;;;;;;;;;5056421;28;20029;-56
2023/02/13 08:24:32;;;;;;;13.83;11.27;;;;;;;;;;5055582;28;20132;-57
2023/02/13 08:26:58;;;;;;;17.57;11.20;;;;;;;;;;5055476;28;20192;-55
2023/02/13 08:29:24;;;;;;;15.77;10.83;;;;;;;;;;5055758;28;20111;-56
2023/02/13 08:31:50;;;;;;;18.80;12.15;;;;;;;;;;5055375;28;20029;-56
2023/02/13 08:34:16;;;;;;;16.40;12.37;;;;;;;;;;5055296;28;20057;-58
2023/02/13 08:36:42;;;;;;;15.00;12.47;;;;;;;;;;5055355;28;20025;-56
2023/02/13 08:39:11;;;;;;;23.30;14.20;;;;;;;;;;5055611;28;20087;-56
2023/02/13 08:41:37;;;;;;;22.47;15.50;;;;;;;;;;5055207;28;20029;-57
2023/02/13 08:44:03;;;;;;;14.93;12.20;;;;;;;;;;5055177;28;20029;-55
2023/02/13 08:46:29;;;;;;;18.15;13.93;;;;;;;;;;5055045;28;20025;-55
2023/02/13 08:48:55;;;;;;;24.63;14.40;;;;;;;;;;5055611;28;20021;-58
2023/02/13 08:51:21;;;;;;;17.17;14.40;;;;;;;;;;5055112;28;20092;-57
2023/02/13 08:53:47;;;;;;;17.07;13.67;;;;;;;;;;5055016;28;20037;-58
2023/02/13 08:56:13;;;;;;;19.63;13.33;;;;;;;;;;5055051;28;20033;-58
2023/02/13 08:58:39;;;;;;;15.13;11.73;;;;;;;;;;5055480;28;20056;-58
2023/02/13 09:01:06;;;;;;;18.93;13.03;;;;;;;;;;5054965;28;20365;-58
2023/02/13 09:03:32;;;;;;;15.73;11.93;;;;;;;;;;5054613;28;20055;-57
2023/02/13 09:05:59;;;;;;;18.42;12.57;;;;;;;;;;5054659;28;20040;-58
2023/02/13 09:08:25;;;;;;;12.25;9.95;;;;;;;;;;5055256;28;20033;-58
2023/02/13 09:10:55;;;;;;;18.08;13.77;;;;;;;;;;5054731;28;20370;-58
2023/02/13 09:13:21;;;;;;;;;;;;;;;;;;5055330;28;20021;-57
2023/02/13 09:15:47;;;;;;;9.98;8.70;;;;;;;;;;5054592;28;20381;-59
2023/02/13 09:18:13;;;;;;;15.32;13.07;;;;;;;;;;5054578;28;20060;-56
2023/02/13 09:20:39;;;;;;;12.07;9.57;;;;;;;;;;5054816;28;20029;-57
2023/02/13 09:23:05;;;;;;;16.00;12.25;;;;;;;;;;5054524;28;20044;-58
2023/02/13 09:25:31;;;;;;;12.88;11.30;;;;;;;;;;5054786;28;20405;-58
2023/02/13 09:27:58;;;;;;;13.15;10.02;;;;;;;;;;5054142;28;20048;-59
2023/02/13 09:30:24;;;;;;;16.20;10.88;;;;;;;;;;5054368;28;20098;-58
2023/02/13 09:32:54;;;;;;;15.68;12.52;;;;;;;;;;5054227;28;20340;-55
2023/02/13 09:35:20;;;;;;;14.32;11.52;;;;;;;;;;5054782;28;20059;-55
2023/02/13 09:37:46;;;;;;;12.25;9.43;;;;;;;;;;5054154;28;20056;-57
2023/02/13 09:40:31;;;;;;;10.95;8.15;;;;;;;;;;5053744;28;20510;-57
2023/02/13 09:43:04;;;;;;;9.20;8.30;;;;;;;;;;5054428;28;20102;-56
2023/02/13 09:45:30;;;;;;;13.38;10.27;;;;;;;;;;5054119;28;20473;-57
2023/02/13 09:47:56;;;;;;;11.18;8.02;;;;;;;;;;5054341;28;20029;-55
2023/02/13 09:50:24;;;;;;;12.98;9.30;;;;;;;;;;5053857;28;20414;-58
2023/02/13 09:52:51;;;;;;;14.40;9.98;;;;;;;;;;5054455;28;20032;-58
2023/02/13 09:55:18;;;;;;;12.18;9.38;;;;;;;;;;5054597;28;20044;-56
2023/02/13 09:57:54;;;;;;;12.30;8.63;;;;;;;;;;5053969;28;20025;-54
2023/02/13 10:00:32;;;;;;;11.30;8.80;;;;;;;;;;5054289;28;20029;-56
2023/02/13 10:02:58;;;;;;;15.95;9.95;;;;;;;;;;5053751;28;20033;-55
2023/02/13 10:05:38;;;;;;;10.18;8.48;;;;;;;;;;5054250;28;20041;-58
2023/02/13 10:08:23;;;;;;;8.93;6.55;;;;;;;;;;5054121;28;20025;-58
2023/02/13 10:10:51;;;;;;;9.95;7.30;;;;;;;;;;5053781;28;20036;-58
2023/02/13 10:13:26;;;;;;;14.18;9.35;;;;;;;;;;5053188;28;20032;-58
2023/02/13 10:16:06;;;;;;;11.18;9.73;;;;;;;;;;5054211;28;20029;-58
2023/02/13 10:18:42;;;;;;;8.77;6.57;;;;;;;;;;5053909;28;20064;-57
2023/02/13 10:21:08;;;;;;;14.20;8.45;;;;;;;;;;5053746;28;20029;-57
2023/02/13 10:23:39;;;;;;;10.50;8.15;;;;;;;;;;5053653;28;20040;-56
2023/02/13 10:26:05;;;;;;;;;;;;;;;;;;5054521;28;20029;-56
2023/02/13 10:28:40;;;;;;;9.05;7.68;;;;;;;;;;5053408;28;19912;-56
2023/02/13 10:31:11;;;;;;;8.63;6.50;;;;;;;;;;5053510;28;20025;-57
2023/02/13 10:33:40;;;;;;;10.40;7.43;;;;;;;;;;5053347;28;20025;-56
2023/02/13 10:36:09;;;;;;;10.10;7.55;;;;;;;;;;5053096;28;20074;-57
2023/02/13 10:38:39;;;;;;;13.60;8.48;;;;;;;;;;5053823;28;20057;-57
2023/02/13 10:41:23;;;;;;;10.13;6.68;;;;;;;;;;5053359;28;20025;-58
2023/02/13 10:44:01;;;;;;;11.60;7.47;;;;;;;;;;5053230;28;20025;-58
2023/02/13 10:46:36;;;;;;;10.13;6.85;;;;;;;;;;5053719;28;20359;-56
2023/02/13 10:49:17;;;;;;;11.07;6.90;;;;;;;;;;5053503;28;20033;-58
2023/02/13 10:51:56;;;;;;;7.85;6.35;;;;;;;;;;5053549;28;20033;-57
2023/02/13 10:54:31;;;;;;;8.03;6.07;;;;;;;;;;5053608;28;20057;-57
2023/02/13 10:57:04;;;;;;;10.90;7.32;;;;;;;;;;5053225;28;20036;-58
2023/02/13 10:59:36;;;;;;;10.23;7.07;;;;;;;;;;5053524;28;20037;-58
2023/02/13 11:02:08;;;;;;;9.82;7.47;;;;;;;;;;5053797;28;20100;-56
2023/02/13 11:04:34;;;;;;;7.53;5.80;;;;;;;;;;5053577;28;20462;-57
2023/02/13 11:07:01;;;;;;;9.48;6.93;;;;;;;;;;5052983;28;20052;-57
2023/02/13 11:09:28;;;;;;;7.63;6.13;;;;;;;;;;5053113;28;20047;-57
2023/02/13 11:11:54;;;;;;;8.52;5.78;;;;;;;;;;5053987;28;20052;-58
2023/02/13 11:14:21;;;;;;;8.05;6.30;;;;;;;;;;5053495;28;20025;-58
2023/02/13 11:16:55;;;;;;;10.48;7.00;;;;;;;;;;5052892;28;20413;-54
2023/02/13 11:19:21;;;;;;;8.57;6.00;;;;;;;;;;5053537;28;20459;-56
2023/02/13 11:21:48;;;;;;;8.82;5.30;;;;;;;;;;5053354;28;20028;-55
2023/02/13 11:24:24;;;;;;;8.45;6.03;;;;;;;;;;5054080;28;20021;-55
2023/02/13 11:26:52;;;;;;;8.20;6.35;;;;;;;;;;5057041;28;20037;-56
2023/02/13 11:29:22;;;;;;;8.02;5.72;;;;;;;;;;5056629;28;20082;-57
2023/02/13 11:32:00;;;;;;;9.40;6.85;;;;;;;;;;5056598;28;20021;-56
2023/02/13 11:34:27;;;;;;;9.57;5.78;;;;;;;;;;5056533;28;20029;-54
2023/02/13 11:36:54;;;;;;;9.48;6.38;;;;;;;;;;5056822;28;20044;-57
2023/02/13 11:39:21;;;;;;;8.52;6.13;;;;;;;;;;5056513;28;20029;-54
2023/02/13 11:41:51;;;;;;;9.38;6.07;;;;;;;;;;5056364;28;20035;-56
2023/02/13 11:44:25;;;;;;;8.00;6.20;;;;;;;;;;5056269;28;20043;-56
2023/02/13 11:46:52;;;;;;;10.95;7.47;;;;;;;;;;5056852;28;20371;-53
2023/02/13 11:49:22;;;;;;;9.98;6.45;;;;;;;;;;5056382;28;20025;-56
2023/02/13 11:51:49;;;;;;;8.18;6.55;;;;;;;;;;5056511;28;20029;-56
2023/02/13 11:54:24;;;;;;;11.27;7.72;;;;;;;;;;5056732;28;20026;-56
2023/02/13 11:56:55;;;;;;;7.60;6.22;;;;;;;;;;5056719;28;20021;-55
2023/02/13 11:59:21;;;;;;;;;;;;;;;;;;5056455;28;20024;-57
2023/02/13 12:01:49;;;;;;;9.85;7.32;;;;;;;;;;5056152;28;20329;-56
2023/02/13 12:04:18;;;;;;;9.07;6.30;;;;;;;;;;5056164;28;20553;-56
2023/02/13 12:06:57;;;;;;;11.63;7.53;;;;;;;;;;5055093;28;20123;-54
2023/02/13 12:09:23;;;;;;;11.23;7.65;;;;;;;;;;5055941;28;20069;-57
2023/02/13 12:11:51;;;;;;;12.73;8.40;;;;;;;;;;5056409;28;20444;-57
2023/02/13 12:14:22;;;;;;;10.77;7.40;;;;;;;;;;5056619;28;20029;-56
2023/02/13 12:16:54;;;;;;;10.02;7.47;;;;;;;;;;5055863;28;20141;-56
2023/02/13 12:19:24;;;;;;;10.05;7.75;;;;;;;;;;5055997;28;20021;-58
2023/02/13 12:22:00;;;;;;;8.85;7.82;;;;;;;;;;5056099;28;20141;-55
2023/02/13 12:24:36;;;;;;;9.25;7.75;;;;;;;;;;5055649;28;20033;-57
2023/02/13 12:27:15;;;;;;;10.30;7.57;;;;;;;;;;5055886;28;20402;-58
2023/02/13 12:29:41;;;;;;;10.23;7.20;;;;;;;;;;5055511;28;20437;-53
2023/02/13 12:32:14;;;;;;;17.92;7.30;;;;;;;;;;5056009;28;20122;-57
2023/02/13 12:34:43;;;;;;;9.07;7.45;;;;;;;;;;5055431;28;20028;-57
2023/02/13 12:37:18;;;;;;;9.57;8.00;;;;;;;;;;5055468;28;20041;-55
2023/02/13 12:40:04;;;;;;;9.93;7.10;;;;;;;;;;5055253;28;20100;-57
2023/02/13 12:42:42;;;;;;;11.75;8.82;;;;;;;;;;5051657;28;20163;-56
2023/02/13 12:45:20;;;;;;;11.10;7.18;;;;;;;;;;5055094;28;20413;-57
2023/02/13 12:48:05;;;;;;;10.50;8.43;;;;;;;;;;5054989;28;20029;-56
2023/02/13 12:50:53;;;;;;;10.48;8.13;;;;;;;;;;5055107;28;20082;-56
2023/02/13 12:53:22;;;;;;;13.18;8.80;;;;;;;;;;5054972;28;20024;-56
2023/02/13 12:56:11;;;;;;;13.43;8.02;;;;;;;;;;5055436;28;20033;-56
2023/02/13 12:58:56;;;;;;;12.10;7.63;;;;;;;;;;5051740;28;20057;-56
2023/02/13 13:01:25;;;;;;;11.15;7.80;;;;;;;;;;5054770;28;20021;-57
2023/02/13 13:03:59;;;;;;;11.88;8.25;;;;;;;;;;5054385;28;20045;-56
2023/02/13 13:06:31;;;;;;;12.57;8.57;;;;;;;;;;5055119;28;20082;-57
2023/02/13 13:09:16;;;;;;;10.57;8.05;;;;;;;;;;5055040;28;20039;-56
2023/02/13 13:12:00;;;;;;;9.23;8.23;;;;;;;;;;5054842;28;20060;-56
2023/02/13 13:14:34;;;;;;;9.25;7.13;;;;;;;;;;5054285;28;20082;-56
2023/02/13 13:17:09;;;;;;;10.68;7.70;;;;;;;;;;5054052;28;20475;-56
2023/02/13 13:19:40;;;;;;;11.18;7.68;;;;;;;;;;5054365;28;20143;-57
2023/02/13 13:22:09;;;;;;;10.07;7.43;;;;;;;;;;5054865;28;20029;-57
2023/02/13 13:24:54;;;;;;;11.13;7.82;;;;;;;;;;5054399;28;20025;-57
2023/02/13 13:27:22;;;;;;;10.77;7.75;;;;;;;;;;5054770;28;20025;-56
2023/02/13 13:29:55;;;;;;;10.70;7.70;;;;;;;;;;5053861;28;20100;-57
2023/02/13 13:32:22;;;;;;;11.50;7.95;;;;;;;;;;5054675;28;20104;-56
2023/02/13 13:34:48;;;;;;;9.77;8.07;;;;;;;;;;5054700;28;20032;-56
2023/02/13 13:37:23;;;;;;;13.60;7.70;;;;;;;;;;5054038;28;20378;-56
2023/02/13 13:40:04;;;;;;;10.13;7.82;;;;;;;;;;5053871;28;20021;-55
2023/02/13 13:42:36;;;;;;;11.98;8.77;;;;;;;;;;5054124;28;20459;-57
2023/02/13 13:45:09;;;;;;;10.35;7.97;;;;;;;;;;5054206;28;20379;-57
2023/02/13 13:47:48;;;;;;;10.90;7.95;;;;;;;;;;5053155;28;20112;-61
2023/02/13 13:50:22;;;;;;;13.30;8.93;;;;;;;;;;5053767;28;20021;-57
2023/02/13 13:53:06;;;;;;;10.98;8.38;;;;;;;;;;5053729;28;20037;-57
2023/02/13 13:55:47;;;;;;;9.95;7.50;;;;;;;;;;5054147;28;20446;-57
2023/02/13 13:58:32;;;;;;;11.63;8.32;;;;;;;;;;5053797;28;20467;-57
2023/02/13 14:01:16;;;;;;;9.00;7.03;;;;;;;;;;5053823;28;20060;-58
2023/02/13 14:03:43;;;;;;;9.52;7.75;;;;;;;;;;5054090;28;20056;-57
2023/02/13 14:06:12;;;;;;;9.70;7.45;;;;;;;;;;5053716;28;20171;-58
2023/02/13 14:08:43;;;;;;;8.98;6.70;;;;;;;;;;5052699;28;20039;-58
2023/02/13 14:11:26;;;;;;;11.45;7.85;;;;;;;;;;5053536;28;20371;-53
2023/02/13 14:13:52;;;;;;;8.18;6.90;;;;;;;;;;5053532;28;20029;-57
2023/02/13 14:16:41;;;;;;;9.85;7.53;;;;;;;;;;5052825;28;20040;-56
2023/02/13 14:19:22;;;;;;;11.30;6.82;;;;;;;;;;5052557;28;20033;-58
2023/02/13 14:21:48;;;;;;;9.88;7.32;;;;;;;;;;5054168;28;20029;-58
2023/02/13 14:24:17;;;;;;;11.88;7.75;;;;;;;;;;5053252;28;20549;-56
2023/02/13 14:26:49;;;;;;;10.85;8.27;;;;;;;;;;5054092;28;20041;-57
2023/02/13 14:29:28;;;;;;;9.82;6.88;;;;;;;;;;5054167;28;20025;-57
2023/02/13 14:31:57;;;;;;;10.18;7.85;;;;;;;;;;5054072;28;20025;-57
2023/02/13 14:34:27;;;;;;;10.23;7.00;;;;;;;;;;5053806;28;20395;-58
2023/02/13 14:37:29;;;;;;;10.20;6.47;;;;;;;;;;5054061;28;20037;-58
2023/02/13 14:40:09;;;;;;;8.48;7.20;;;;;;;;;;5041656;28;20025;-56
2023/02/13 14:42:36;;;;;;;10.40;7.57;;;;;;;;;;5053704;28;20025;-58
2023/02/13 14:45:03;;;;;;;9.52;6.90;;;;;;;;;;5053865;28;20389;-55
2023/02/13 14:47:41;;;;;;;8.90;6.93;;;;;;;;;;5053227;28;20054;-54
2023/02/13 14:50:13;;;;;;;9.93;7.65;;;;;;;;;;5053286;28;20498;-56
2023/02/13 14:52:42;;;;;;;10.80;7.35;;;;;;;;;;5053851;28;20035;-58
2023/02/13 14:55:14;;;;;;;9.95;6.60;;;;;;;;;;5053385;28;20035;-56
2023/02/13 14:57:43;;;;;;;13.60;8.13;;;;;;;;;;5053569;28;20026;-58
2023/02/13 15:00:24;;;;;;;10.18;7.32;;;;;;;;;;5057043;28;20104;-56
2023/02/13 15:02:50;;;;;;;;;;;;;;;;;;5057685;28;20029;-58
2023/02/13 15:05:21;;;;;;;10.25;7.65;;;;;;;;;;5057034;28;20255;-58
2023/02/13 15:07:48;;;;;;;7.97;6.57;;;;;;;;;;5057486;28;20033;-57
2023/02/13 15:10:28;;;;;;;10.50;7.07;;;;;;;;;;5057044;28;20071;-57
2023/02/13 15:12:57;;;;;;;9.07;6.22;;;;;;;;;;5057270;28;20033;-58
2023/02/13 15:15:25;;;;;;;9.73;7.25;;;;;;;;;;5056986;28;20020;-55
2023/02/13 15:17:53;;;;;;;9.95;7.70;;;;;;;;;;5056851;28;20029;-58
2023/02/13 15:20:30;;;;;;;8.88;6.57;;;;;;;;;;5057582;28;20028;-56
2023/02/13 15:22:56;;;;;;;8.65;6.72;;;;;;;;;;5056605;28;20048;-56
2023/02/13 15:25:24;;;;;;;9.57;7.60;;;;;;;;;;5056402;28;20048;-55